THY1989 LTFJ-LTAN
Flight info
| Callsign | THY1989 |
|---|---|
| Flight time | 0h 50m |
| Altitude | 33000 |
| Route | LTFJ SID ROXUK UN617 ERVAG UT179 KFK UB545 HISAR STAR LTAN |
| Aircraft | B738/M-VGDW/C |
Departure
| Time | 2026-05-06 10:29 |
|---|---|
| Airport | Istanbul Sabiha Gökçen International Airport (LTFJ) |
Arrival
| Time | 2026-05-06 11:20 |
|---|---|
| Airport | Konya Airport (LTAN) |
| Time | Latitude | Longitude | Altitude | Speed | Heading |
|---|---|---|---|---|---|
| 2026-05-06 10:24 | 40.90731 | 29.31991 | 320 ft | 0 kts | 334° |
| 2026-05-06 10:24 | 40.90727 | 29.31994 | 320 ft | 2 kts | 334° |
| 2026-05-06 10:25 | 40.90712 | 29.32004 | 320 ft | 3 kts | 334° |
| 2026-05-06 10:25 | 40.90697 | 29.32014 | 320 ft | 0 kts | 334° |
| 2026-05-06 10:26 | 40.90699 | 29.32012 | 320 ft | 1 kts | 334° |
| 2026-05-06 10:26 | 40.90723 | 29.32024 | 320 ft | 7 kts | 64° |
| 2026-05-06 10:26 | 40.90699 | 29.32096 | 320 ft | 12 kts | 121° |
| 2026-05-06 10:27 | 40.90650 | 29.32216 | 320 ft | 17 kts | 110° |
| 2026-05-06 10:27 | 40.90626 | 29.32355 | 320 ft | 14 kts | 122° |
| 2026-05-06 10:27 | 40.90559 | 29.32410 | 320 ft | 9 kts | 155° |
| 2026-05-06 10:27 | 40.90511 | 29.32440 | 320 ft | 6 kts | 155° |
| 2026-05-06 10:28 | 40.90480 | 29.32459 | 320 ft | 7 kts | 155° |
| 2026-05-06 10:28 | 40.90416 | 29.32445 | 320 ft | 22 kts | 239° |
| 2026-05-06 10:28 | 40.90201 | 29.31871 | 320 ft | 115 kts | 244° |
| 2026-05-06 10:28 | 40.89743 | 29.30614 | 401 ft | 179 kts | 244° |
| 2026-05-06 10:29 | 40.89220 | 29.29151 | 852 ft | 172 kts | 245° |
| 2026-05-06 10:29 | 40.88720 | 29.27718 | 1516 ft | 170 kts | 244° |
| 2026-05-06 10:29 | 40.88210 | 29.26318 | 2132 ft | 169 kts | 244° |
| 2026-05-06 10:29 | 40.87696 | 29.24910 | 2762 ft | 171 kts | 244° |
| 2026-05-06 10:30 | 40.87170 | 29.23463 | 3396 ft | 181 kts | 244° |
| 2026-05-06 10:30 | 40.86603 | 29.21900 | 4011 ft | 200 kts | 245° |
| 2026-05-06 10:30 | 40.85820 | 29.20305 | 4652 ft | 218 kts | 225° |
| 2026-05-06 10:30 | 40.84451 | 29.19312 | 5308 ft | 234 kts | 197° |
| 2026-05-06 10:31 | 40.82796 | 29.19281 | 5953 ft | 244 kts | 172° |
| 2026-05-06 10:31 | 40.81187 | 29.20021 | 6589 ft | 249 kts | 158° |
| 2026-05-06 10:31 | 40.79619 | 29.21061 | 7226 ft | 251 kts | 158° |
| 2026-05-06 10:31 | 40.78048 | 29.22100 | 7854 ft | 254 kts | 158° |
| 2026-05-06 10:32 | 40.76476 | 29.23143 | 8476 ft | 256 kts | 158° |
| 2026-05-06 10:32 | 40.74880 | 29.24202 | 9102 ft | 258 kts | 158° |
| 2026-05-06 10:32 | 40.73264 | 29.25273 | 9706 ft | 262 kts | 158° |
| 2026-05-06 10:32 | 40.71623 | 29.26360 | 10033 ft | 264 kts | 158° |
| 2026-05-06 10:33 | 40.69981 | 29.27447 | 10514 ft | 262 kts | 158° |
| 2026-05-06 10:33 | 40.68308 | 29.28554 | 11079 ft | 279 kts | 157° |
| 2026-05-06 10:33 | 40.66517 | 29.29739 | 11559 ft | 298 kts | 157° |
| 2026-05-06 10:33 | 40.64601 | 29.31005 | 12014 ft | 317 kts | 157° |
| 2026-05-06 10:34 | 40.62588 | 29.32348 | 12395 ft | 338 kts | 156° |
| 2026-05-06 10:34 | 40.60440 | 29.33779 | 12881 ft | 354 kts | 156° |
| 2026-05-06 10:34 | 40.58216 | 29.35254 | 13622 ft | 360 kts | 156° |
| 2026-05-06 10:34 | 40.55959 | 29.36747 | 14423 ft | 365 kts | 156° |
| 2026-05-06 10:35 | 40.53674 | 29.38255 | 15208 ft | 369 kts | 156° |
| 2026-05-06 10:35 | 40.51366 | 29.39775 | 15974 ft | 373 kts | 156° |
| 2026-05-06 10:35 | 40.49022 | 29.41318 | 16720 ft | 378 kts | 156° |
| 2026-05-06 10:35 | 40.46663 | 29.42868 | 17435 ft | 382 kts | 156° |
| 2026-05-06 10:36 | 40.44264 | 29.44443 | 17843 ft | 387 kts | 156° |
| 2026-05-06 10:36 | 40.41851 | 29.46027 | 17984 ft | 387 kts | 156° |
| 2026-05-06 10:36 | 40.39473 | 29.47586 | 17992 ft | 386 kts | 156° |
| 2026-05-06 10:36 | 40.37066 | 29.49165 | 17996 ft | 386 kts | 156° |
| 2026-05-06 10:37 | 40.34728 | 29.50923 | 18025 ft | 392 kts | 150° |
| 2026-05-06 10:37 | 40.32504 | 29.53033 | 18640 ft | 396 kts | 145° |
| 2026-05-06 10:37 | 40.31042 | 29.54561 | 19192 ft | 397 kts | 143° |
| 2026-05-06 10:37 | 40.28915 | 29.56824 | 19871 ft | 401 kts | 144° |
| 2026-05-06 10:38 | 40.26733 | 29.59117 | 20512 ft | 405 kts | 144° |
| 2026-05-06 10:38 | 40.24513 | 29.61429 | 21143 ft | 408 kts | 144° |
| 2026-05-06 10:38 | 40.22172 | 29.63531 | 21746 ft | 409 kts | 154° |
| 2026-05-06 10:38 | 40.19582 | 29.65062 | 22334 ft | 408 kts | 164° |
| 2026-05-06 10:39 | 40.16838 | 29.66041 | 22910 ft | 409 kts | 171° |
| 2026-05-06 10:39 | 40.14031 | 29.66721 | 23468 ft | 411 kts | 174° |
| 2026-05-06 10:39 | 40.11192 | 29.67296 | 24009 ft | 414 kts | 175° |
| 2026-05-06 10:39 | 40.08333 | 29.67871 | 24533 ft | 417 kts | 174° |
| 2026-05-06 10:40 | 40.05481 | 29.68452 | 25033 ft | 421 kts | 174° |
| 2026-05-06 10:40 | 40.02573 | 29.69050 | 25528 ft | 424 kts | 174° |
| 2026-05-06 10:40 | 39.99647 | 29.69655 | 26005 ft | 427 kts | 174° |
| 2026-05-06 10:40 | 39.96696 | 29.70267 | 26469 ft | 430 kts | 174° |
| 2026-05-06 10:41 | 39.93729 | 29.70883 | 26919 ft | 433 kts | 174° |
| 2026-05-06 10:41 | 39.90753 | 29.71606 | 27352 ft | 438 kts | 170° |
| 2026-05-06 10:41 | 39.87800 | 29.72683 | 27771 ft | 443 kts | 164° |
| 2026-05-06 10:41 | 39.84892 | 29.74130 | 28180 ft | 448 kts | 160° |
| 2026-05-06 10:42 | 39.82046 | 29.75731 | 28573 ft | 451 kts | 159° |
| 2026-05-06 10:42 | 39.79178 | 29.77386 | 28978 ft | 453 kts | 159° |
| 2026-05-06 10:42 | 39.76299 | 29.79032 | 29498 ft | 451 kts | 159° |
| 2026-05-06 10:42 | 39.73420 | 29.80666 | 30018 ft | 450 kts | 159° |
| 2026-05-06 10:43 | 39.70550 | 29.82287 | 30509 ft | 449 kts | 159° |
| 2026-05-06 10:43 | 39.67685 | 29.83900 | 30988 ft | 448 kts | 159° |
| 2026-05-06 10:43 | 39.64822 | 29.85509 | 31459 ft | 447 kts | 159° |
| 2026-05-06 10:44 | 39.59116 | 29.88707 | 32369 ft | 445 kts | 160° |
| 2026-05-06 10:44 | 39.56268 | 29.90301 | 32810 ft | 445 kts | 160° |
| 2026-05-06 10:44 | 39.53414 | 29.91897 | 32979 ft | 448 kts | 160° |
| 2026-05-06 10:45 | 39.47700 | 29.95121 | 32993 ft | 446 kts | 159° |
| 2026-05-06 10:45 | 39.42061 | 29.98304 | 32997 ft | 443 kts | 159° |
| 2026-05-06 10:46 | 39.36405 | 30.01491 | 32997 ft | 443 kts | 159° |
| 2026-05-06 10:46 | 39.30757 | 30.04695 | 32997 ft | 443 kts | 159° |
| 2026-05-06 10:47 | 39.25097 | 30.07882 | 32997 ft | 443 kts | 159° |
| 2026-05-06 10:47 | 39.19477 | 30.11036 | 32997 ft | 443 kts | 159° |
| 2026-05-06 10:48 | 39.13827 | 30.14199 | 32997 ft | 443 kts | 159° |
| 2026-05-06 10:48 | 39.08251 | 30.17602 | 32996 ft | 446 kts | 151° |
| 2026-05-06 10:49 | 39.03388 | 30.22602 | 32988 ft | 451 kts | 137° |
| 2026-05-06 10:49 | 39.01218 | 30.25566 | 32774 ft | 452 kts | 134° |
| 2026-05-06 10:49 | 38.99140 | 30.28547 | 32389 ft | 453 kts | 134° |
| 2026-05-06 10:49 | 38.97000 | 30.31586 | 31893 ft | 466 kts | 134° |
| 2026-05-06 10:50 | 38.94770 | 30.34727 | 31394 ft | 482 kts | 134° |
| 2026-05-06 10:50 | 38.92479 | 30.37932 | 30894 ft | 491 kts | 134° |
| 2026-05-06 10:50 | 38.90163 | 30.41162 | 30392 ft | 490 kts | 135° |
| 2026-05-06 10:50 | 38.87857 | 30.44369 | 29892 ft | 487 kts | 135° |
| 2026-05-06 10:51 | 38.85565 | 30.47552 | 29391 ft | 483 kts | 135° |
| 2026-05-06 10:51 | 38.83293 | 30.50703 | 28889 ft | 479 kts | 135° |
| 2026-05-06 10:51 | 38.81033 | 30.53837 | 28388 ft | 476 kts | 135° |
| 2026-05-06 10:51 | 38.78823 | 30.56963 | 27888 ft | 472 kts | 133° |
| 2026-05-06 10:52 | 38.76700 | 30.60094 | 27392 ft | 469 kts | 133° |
| 2026-05-06 10:52 | 38.74548 | 30.63275 | 26886 ft | 465 kts | 133° |
| 2026-05-06 10:52 | 38.73891 | 30.64244 | 26731 ft | 464 kts | 133° |
| 2026-05-06 10:52 | 38.72731 | 30.65952 | 26456 ft | 462 kts | 133° |
| 2026-05-06 10:53 | 38.70622 | 30.69053 | 25954 ft | 459 kts | 133° |
| 2026-05-06 10:53 | 38.68568 | 30.72082 | 25460 ft | 456 kts | 133° |
| 2026-05-06 10:53 | 38.66503 | 30.75142 | 24959 ft | 452 kts | 133° |
| 2026-05-06 10:53 | 38.64440 | 30.78180 | 24457 ft | 449 kts | 133° |
| 2026-05-06 10:54 | 38.62391 | 30.81183 | 23955 ft | 446 kts | 133° |
| 2026-05-06 10:54 | 38.60360 | 30.84151 | 23455 ft | 443 kts | 133° |
| 2026-05-06 10:54 | 38.58338 | 30.87101 | 22954 ft | 439 kts | 133° |
| 2026-05-06 10:54 | 38.56325 | 30.90033 | 22452 ft | 436 kts | 133° |
| 2026-05-06 10:55 | 38.54329 | 30.92937 | 21951 ft | 433 kts | 133° |
| 2026-05-06 10:55 | 38.52348 | 30.95816 | 21450 ft | 430 kts | 133° |
| 2026-05-06 10:55 | 38.50381 | 30.98674 | 20949 ft | 427 kts | 134° |
| 2026-05-06 10:55 | 38.48425 | 31.01517 | 20447 ft | 424 kts | 133° |
| 2026-05-06 10:56 | 38.46499 | 31.04288 | 19952 ft | 421 kts | 134° |
| 2026-05-06 10:56 | 38.44562 | 31.07064 | 19451 ft | 418 kts | 134° |
| 2026-05-06 10:56 | 38.42635 | 31.09822 | 18950 ft | 414 kts | 134° |
| 2026-05-06 10:56 | 38.40721 | 31.12559 | 18449 ft | 411 kts | 134° |
| 2026-05-06 10:57 | 38.38822 | 31.15273 | 17947 ft | 408 kts | 134° |
| 2026-05-06 10:57 | 38.36941 | 31.17958 | 17448 ft | 405 kts | 134° |
| 2026-05-06 10:57 | 38.35064 | 31.20638 | 16946 ft | 406 kts | 134° |
| 2026-05-06 10:57 | 38.33171 | 31.23338 | 16454 ft | 420 kts | 134° |
| 2026-05-06 10:58 | 38.31197 | 31.26191 | 15948 ft | 427 kts | 133° |
| 2026-05-06 10:58 | 38.29248 | 31.28993 | 15454 ft | 428 kts | 134° |
| 2026-05-06 10:58 | 38.27250 | 31.31851 | 14947 ft | 426 kts | 134° |
| 2026-05-06 10:58 | 38.25287 | 31.34649 | 14447 ft | 422 kts | 134° |
| 2026-05-06 10:59 | 38.23358 | 31.37393 | 13950 ft | 419 kts | 134° |
| 2026-05-06 10:59 | 38.21421 | 31.40144 | 13449 ft | 416 kts | 134° |
| 2026-05-06 10:59 | 38.19495 | 31.42875 | 12948 ft | 413 kts | 134° |
| 2026-05-06 10:59 | 38.17586 | 31.45580 | 12447 ft | 410 kts | 134° |
| 2026-05-06 11:00 | 38.15682 | 31.48276 | 11944 ft | 407 kts | 134° |
| 2026-05-06 11:00 | 38.13823 | 31.50955 | 11442 ft | 405 kts | 131° |
| 2026-05-06 11:00 | 38.12322 | 31.53954 | 11132 ft | 404 kts | 117° |
| 2026-05-06 11:00 | 38.11341 | 31.57326 | 11069 ft | 405 kts | 106° |
| 2026-05-06 11:01 | 38.10752 | 31.60835 | 11012 ft | 406 kts | 100° |
| 2026-05-06 11:01 | 38.10349 | 31.64344 | 11004 ft | 406 kts | 98° |
| 2026-05-06 11:01 | 38.09985 | 31.67898 | 10999 ft | 406 kts | 98° |
| 2026-05-06 11:01 | 38.09603 | 31.71460 | 10997 ft | 406 kts | 98° |
| 2026-05-06 11:02 | 38.09210 | 31.75017 | 10997 ft | 406 kts | 98° |
| 2026-05-06 11:02 | 38.08810 | 31.78570 | 10997 ft | 406 kts | 98° |
| 2026-05-06 11:02 | 38.08406 | 31.82121 | 10997 ft | 406 kts | 98° |
| 2026-05-06 11:02 | 38.07999 | 31.85667 | 10997 ft | 406 kts | 98° |
| 2026-05-06 11:03 | 38.07597 | 31.89162 | 10997 ft | 406 kts | 98° |
| 2026-05-06 11:03 | 38.07187 | 31.92722 | 10997 ft | 406 kts | 98° |
| 2026-05-06 11:03 | 38.06783 | 31.96273 | 10997 ft | 406 kts | 98° |
| 2026-05-06 11:03 | 38.06377 | 31.99805 | 10996 ft | 400 kts | 98° |
| 2026-05-06 11:04 | 38.06183 | 32.03269 | 10978 ft | 388 kts | 86° |
| 2026-05-06 11:04 | 38.06657 | 32.06555 | 10992 ft | 369 kts | 74° |
| 2026-05-06 11:04 | 38.07334 | 32.09620 | 10991 ft | 353 kts | 73° |
| 2026-05-06 11:04 | 38.07980 | 32.12557 | 10987 ft | 338 kts | 73° |
| 2026-05-06 11:05 | 38.08599 | 32.15376 | 10984 ft | 324 kts | 73° |
| 2026-05-06 11:05 | 38.09188 | 32.18069 | 10981 ft | 311 kts | 73° |
| 2026-05-06 11:05 | 38.09754 | 32.20659 | 10864 ft | 303 kts | 73° |
| 2026-05-06 11:05 | 38.10308 | 32.23203 | 10737 ft | 296 kts | 73° |
| 2026-05-06 11:06 | 38.10849 | 32.25693 | 10610 ft | 290 kts | 73° |
| 2026-05-06 11:06 | 38.11383 | 32.28152 | 10484 ft | 287 kts | 73° |
| 2026-05-06 11:06 | 38.11913 | 32.30596 | 10358 ft | 286 kts | 73° |
| 2026-05-06 11:06 | 38.12443 | 32.33038 | 10220 ft | 287 kts | 73° |
| 2026-05-06 11:07 | 38.12974 | 32.35484 | 9974 ft | 287 kts | 73° |
| 2026-05-06 11:07 | 38.13503 | 32.37921 | 9741 ft | 284 kts | 73° |
| 2026-05-06 11:07 | 38.14026 | 32.40332 | 9512 ft | 281 kts | 73° |
| 2026-05-06 11:07 | 38.14544 | 32.42724 | 9192 ft | 282 kts | 73° |
| 2026-05-06 11:08 | 38.15064 | 32.45124 | 8868 ft | 283 kts | 73° |
| 2026-05-06 11:08 | 38.15590 | 32.47545 | 8541 ft | 284 kts | 73° |
| 2026-05-06 11:08 | 38.16108 | 32.49934 | 8218 ft | 284 kts | 73° |
| 2026-05-06 11:08 | 38.16633 | 32.52355 | 7924 ft | 284 kts | 73° |
| 2026-05-06 11:09 | 38.17211 | 32.54732 | 7699 ft | 278 kts | 63° |
| 2026-05-06 11:09 | 38.18415 | 32.56562 | 7496 ft | 266 kts | 34° |
| 2026-05-06 11:09 | 38.19934 | 32.57861 | 7298 ft | 260 kts | 28° |
| 2026-05-06 11:09 | 38.21454 | 32.59086 | 7072 ft | 257 kts | 28° |
| 2026-05-06 11:10 | 38.22959 | 32.60299 | 6845 ft | 254 kts | 28° |
| 2026-05-06 11:10 | 38.24470 | 32.61409 | 6618 ft | 249 kts | 22° |
| 2026-05-06 11:10 | 38.26031 | 32.62316 | 6392 ft | 245 kts | 18° |
| 2026-05-06 11:10 | 38.27644 | 32.62854 | 6162 ft | 236 kts | 2° |
| 2026-05-06 11:11 | 38.29253 | 32.63232 | 5912 ft | 238 kts | 20° |
| 2026-05-06 11:11 | 38.30469 | 32.64635 | 5681 ft | 242 kts | 58° |
| 2026-05-06 11:11 | 38.30800 | 32.66685 | 5458 ft | 243 kts | 95° |
| 2026-05-06 11:11 | 38.30113 | 32.68604 | 5231 ft | 240 kts | 134° |
| 2026-05-06 11:12 | 38.28697 | 32.69584 | 5024 ft | 230 kts | 173° |
| 2026-05-06 11:12 | 38.27185 | 32.69352 | 4994 ft | 211 kts | 204° |
| 2026-05-06 11:12 | 38.25923 | 32.68543 | 4981 ft | 195 kts | 212° |
| 2026-05-06 11:12 | 38.24802 | 32.67749 | 5017 ft | 174 kts | 212° |
| 2026-05-06 11:13 | 38.23802 | 32.67053 | 5073 ft | 153 kts | 212° |
| 2026-05-06 11:13 | 38.22899 | 32.66437 | 5051 ft | 147 kts | 212° |
| 2026-05-06 11:13 | 38.22003 | 32.65825 | 5015 ft | 146 kts | 212° |
| 2026-05-06 11:13 | 38.21106 | 32.65210 | 5009 ft | 147 kts | 212° |
| 2026-05-06 11:14 | 38.20205 | 32.64592 | 5003 ft | 147 kts | 212° |
| 2026-05-06 11:14 | 38.19302 | 32.63973 | 4999 ft | 147 kts | 212° |
| 2026-05-06 11:14 | 38.18400 | 32.63359 | 4997 ft | 148 kts | 211° |
| 2026-05-06 11:14 | 38.17433 | 32.62893 | 4994 ft | 149 kts | 200° |
| 2026-05-06 11:15 | 38.16422 | 32.62566 | 5000 ft | 150 kts | 197° |
| 2026-05-06 11:15 | 38.15421 | 32.62254 | 4973 ft | 150 kts | 197° |
| 2026-05-06 11:15 | 38.14392 | 32.61923 | 4837 ft | 151 kts | 198° |
| 2026-05-06 11:15 | 38.13392 | 32.61600 | 4686 ft | 149 kts | 197° |
| 2026-05-06 11:16 | 38.12369 | 32.61355 | 4535 ft | 150 kts | 190° |
| 2026-05-06 11:16 | 38.11345 | 32.61180 | 4469 ft | 148 kts | 190° |
| 2026-05-06 11:16 | 38.10328 | 32.60941 | 4476 ft | 149 kts | 193° |
| 2026-05-06 11:16 | 38.09311 | 32.60684 | 4485 ft | 149 kts | 193° |
| 2026-05-06 11:17 | 38.08291 | 32.60418 | 4446 ft | 149 kts | 194° |
| 2026-05-06 11:17 | 38.07279 | 32.60135 | 4397 ft | 149 kts | 194° |
| 2026-05-06 11:17 | 38.06277 | 32.59794 | 4347 ft | 148 kts | 198° |
| 2026-05-06 11:17 | 38.05292 | 32.59413 | 4287 ft | 148 kts | 200° |
| 2026-05-06 11:18 | 38.04343 | 32.58933 | 4087 ft | 149 kts | 205° |
| 2026-05-06 11:18 | 38.03413 | 32.58383 | 3874 ft | 145 kts | 206° |
| 2026-05-06 11:18 | 38.02475 | 32.57910 | 3700 ft | 144 kts | 198° |
| 2026-05-06 11:18 | 38.01523 | 32.57526 | 3610 ft | 144 kts | 198° |
| 2026-05-06 11:19 | 38.00569 | 32.57167 | 3549 ft | 143 kts | 195° |
| 2026-05-06 11:19 | 37.99604 | 32.56821 | 3411 ft | 144 kts | 196° |
| 2026-05-06 11:19 | 37.98676 | 32.56473 | 3390 ft | 129 kts | 196° |
| 2026-05-06 11:19 | 37.98006 | 32.56240 | 3390 ft | 60 kts | 200° |
| 2026-05-06 11:20 | 37.97871 | 32.56184 | 3390 ft | 12 kts | 197° |
| 2026-05-06 11:20 | 37.97728 | 32.56130 | 3390 ft | 22 kts | 197° |
| 2026-05-06 11:20 | 37.97617 | 32.56044 | 3390 ft | 25 kts | 238° |
| 2026-05-06 11:20 | 37.97666 | 32.55894 | 3390 ft | 31 kts | 328° |
| 2026-05-06 11:21 | 37.97806 | 32.55894 | 3390 ft | 23 kts | 338° |
| 2026-05-06 11:21 | 37.97842 | 32.55859 | 3390 ft | 0 kts | 288° |
| 2026-05-06 11:21 | 37.97842 | 32.55858 | 3390 ft | 0 kts | 288° |